<?xml version="1.0" encoding="UTF-8" standalone="no" ?>
<gpx xmlns="http://www.topografix.com/GPX/1/1" xmlns:xsi="http://www.w3.org/2001/XMLSchema-instance" xsi:schemaLocation="http://www.topografix.com/GPX/1/1 http://www.topografix.com/GPX/1/1/gpx.xsd" version="1.1" creator="VisuGPX - https://www.visugpx.com">
  <metadata>
    <name>Le trou de la mouche</name>
  </metadata>
  <trk>
    <name><![CDATA[Le trou de la mouche]]></name>
    <trkseg>
      <trkpt lat="45.92067" lon="6.48166">
        <ele>1424.059</ele>
        <time>2019-02-24T08:18:03Z</time>
      </trkpt>
      <trkpt lat="45.92072" lon="6.48155">
        <ele>1424.003</ele>
        <time>2019-02-24T08:19:41Z</time>
      </trkpt>
      <trkpt lat="45.92072" lon="6.48223">
        <ele>1424.023</ele>
        <time>2019-02-24T08:21:25Z</time>
      </trkpt>
      <trkpt lat="45.92045" lon="6.48236">
        <ele>1423.808</ele>
        <time>2019-02-24T08:22:14Z</time>
      </trkpt>
      <trkpt lat="45.92006" lon="6.48352">
        <ele>1439.028</ele>
        <time>2019-02-24T08:24:18Z</time>
      </trkpt>
      <trkpt lat="45.91964" lon="6.48383">
        <ele>1443.818</ele>
        <time>2019-02-24T08:25:24Z</time>
      </trkpt>
      <trkpt lat="45.91878" lon="6.48403">
        <ele>1452.699</ele>
        <time>2019-02-24T08:27:59Z</time>
      </trkpt>
      <trkpt lat="45.91876" lon="6.48513">
        <ele>1460.392</ele>
        <time>2019-02-24T08:29:51Z</time>
      </trkpt>
      <trkpt lat="45.91841" lon="6.48581">
        <ele>1464.283</ele>
        <time>2019-02-24T08:30:56Z</time>
      </trkpt>
      <trkpt lat="45.91872" lon="6.48621">
        <ele>1470.899</ele>
        <time>2019-02-24T08:33:32Z</time>
      </trkpt>
      <trkpt lat="45.91854" lon="6.48637">
        <ele>1474.522</ele>
        <time>2019-02-24T08:37:20Z</time>
      </trkpt>
      <trkpt lat="45.91825" lon="6.48633">
        <ele>1482.39</ele>
        <time>2019-02-24T08:38:11Z</time>
      </trkpt>
      <trkpt lat="45.91843" lon="6.48707">
        <ele>1500.384</ele>
        <time>2019-02-24T08:40:09Z</time>
      </trkpt>
      <trkpt lat="45.91879" lon="6.48756">
        <ele>1511.707</ele>
        <time>2019-02-24T08:41:51Z</time>
      </trkpt>
      <trkpt lat="45.91788" lon="6.48748">
        <ele>1543.017</ele>
        <time>2019-02-24T08:46:50Z</time>
      </trkpt>
      <trkpt lat="45.91767" lon="6.48804">
        <ele>1554.008</ele>
        <time>2019-02-24T08:48:16Z</time>
      </trkpt>
      <trkpt lat="45.9172" lon="6.48836">
        <ele>1558.021</ele>
        <time>2019-02-24T08:49:21Z</time>
      </trkpt>
      <trkpt lat="45.91712" lon="6.48858">
        <ele>1562.091</ele>
        <time>2019-02-24T08:50:11Z</time>
      </trkpt>
      <trkpt lat="45.91655" lon="6.48854">
        <ele>1567.592</ele>
        <time>2019-02-24T08:51:32Z</time>
      </trkpt>
      <trkpt lat="45.91508" lon="6.48924">
        <ele>1591.985</ele>
        <time>2019-02-24T08:56:03Z</time>
      </trkpt>
      <trkpt lat="45.91486" lon="6.48905">
        <ele>1597.436</ele>
        <time>2019-02-24T08:57:04Z</time>
      </trkpt>
      <trkpt lat="45.91445" lon="6.48902">
        <ele>1609.112</ele>
        <time>2019-02-24T08:58:35Z</time>
      </trkpt>
      <trkpt lat="45.91442" lon="6.4888">
        <ele>1611.295</ele>
        <time>2019-02-24T09:00:04Z</time>
      </trkpt>
      <trkpt lat="45.9143" lon="6.48889">
        <ele>1618.923</ele>
        <time>2019-02-24T09:02:16Z</time>
      </trkpt>
      <trkpt lat="45.91412" lon="6.48854">
        <ele>1633.856</ele>
        <time>2019-02-24T09:06:18Z</time>
      </trkpt>
      <trkpt lat="45.91393" lon="6.48869">
        <ele>1639.159</ele>
        <time>2019-02-24T09:08:10Z</time>
      </trkpt>
      <trkpt lat="45.91391" lon="6.4886">
        <ele>1638.414</ele>
        <time>2019-02-24T09:12:04Z</time>
      </trkpt>
      <trkpt lat="45.9138" lon="6.48923">
        <ele>1653.408</ele>
        <time>2019-02-24T09:14:00Z</time>
      </trkpt>
      <trkpt lat="45.91394" lon="6.48971">
        <ele>1668.198</ele>
        <time>2019-02-24T09:16:41Z</time>
      </trkpt>
      <trkpt lat="45.91376" lon="6.48977">
        <ele>1677.658</ele>
        <time>2019-02-24T09:18:34Z</time>
      </trkpt>
      <trkpt lat="45.91353" lon="6.48961">
        <ele>1687.919</ele>
        <time>2019-02-24T09:19:43Z</time>
      </trkpt>
      <trkpt lat="45.91323" lon="6.48986">
        <ele>1699.662</ele>
        <time>2019-02-24T09:20:50Z</time>
      </trkpt>
      <trkpt lat="45.91329" lon="6.49042">
        <ele>1710.273</ele>
        <time>2019-02-24T09:21:52Z</time>
      </trkpt>
      <trkpt lat="45.91348" lon="6.49074">
        <ele>1717.229</ele>
        <time>2019-02-24T09:22:34Z</time>
      </trkpt>
      <trkpt lat="45.91341" lon="6.49067">
        <ele>1718.652</ele>
        <time>2019-02-24T09:23:27Z</time>
      </trkpt>
      <trkpt lat="45.91342" lon="6.49098">
        <ele>1723.95</ele>
        <time>2019-02-24T09:29:08Z</time>
      </trkpt>
      <trkpt lat="45.91332" lon="6.49095">
        <ele>1727.015</ele>
        <time>2019-02-24T09:29:49Z</time>
      </trkpt>
      <trkpt lat="45.91345" lon="6.49132">
        <ele>1733.765</ele>
        <time>2019-02-24T09:30:33Z</time>
      </trkpt>
      <trkpt lat="45.91296" lon="6.49123">
        <ele>1746.711</ele>
        <time>2019-02-24T09:31:58Z</time>
      </trkpt>
      <trkpt lat="45.91313" lon="6.4919">
        <ele>1760.508</ele>
        <time>2019-02-24T09:33:30Z</time>
      </trkpt>
      <trkpt lat="45.9128" lon="6.49186">
        <ele>1767.454</ele>
        <time>2019-02-24T09:34:12Z</time>
      </trkpt>
      <trkpt lat="45.91286" lon="6.49254">
        <ele>1779.014</ele>
        <time>2019-02-24T09:35:30Z</time>
      </trkpt>
      <trkpt lat="45.91263" lon="6.49237">
        <ele>1783.635</ele>
        <time>2019-02-24T09:36:00Z</time>
      </trkpt>
      <trkpt lat="45.9126" lon="6.49263">
        <ele>1786.768</ele>
        <time>2019-02-24T09:36:23Z</time>
      </trkpt>
      <trkpt lat="45.91243" lon="6.49256">
        <ele>1792.659</ele>
        <time>2019-02-24T09:37:14Z</time>
      </trkpt>
      <trkpt lat="45.91236" lon="6.49289">
        <ele>1799.635</ele>
        <time>2019-02-24T09:38:07Z</time>
      </trkpt>
      <trkpt lat="45.91206" lon="6.49261">
        <ele>1811.988</ele>
        <time>2019-02-24T09:39:52Z</time>
      </trkpt>
      <trkpt lat="45.91205" lon="6.49313">
        <ele>1825.116</ele>
        <time>2019-02-24T09:41:18Z</time>
      </trkpt>
      <trkpt lat="45.91148" lon="6.49301">
        <ele>1841.889</ele>
        <time>2019-02-24T09:43:15Z</time>
      </trkpt>
      <trkpt lat="45.91175" lon="6.49382">
        <ele>1858.406</ele>
        <time>2019-02-24T09:45:37Z</time>
      </trkpt>
      <trkpt lat="45.91144" lon="6.49382">
        <ele>1870.326</ele>
        <time>2019-02-24T09:47:06Z</time>
      </trkpt>
      <trkpt lat="45.91156" lon="6.49414">
        <ele>1877.708</ele>
        <time>2019-02-24T09:48:20Z</time>
      </trkpt>
      <trkpt lat="45.91163" lon="6.49401">
        <ele>1878.781</ele>
        <time>2019-02-24T09:48:57Z</time>
      </trkpt>
      <trkpt lat="45.91159" lon="6.49417">
        <ele>1879.451</ele>
        <time>2019-02-24T09:49:07Z</time>
      </trkpt>
      <trkpt lat="45.91127" lon="6.49415">
        <ele>1887.612</ele>
        <time>2019-02-24T09:50:04Z</time>
      </trkpt>
      <trkpt lat="45.91143" lon="6.4945">
        <ele>1895.295</ele>
        <time>2019-02-24T09:50:58Z</time>
      </trkpt>
      <trkpt lat="45.91046" lon="6.49442">
        <ele>1915.466</ele>
        <time>2019-02-24T09:54:05Z</time>
      </trkpt>
      <trkpt lat="45.9094" lon="6.49391">
        <ele>1938.342</ele>
        <time>2019-02-24T09:58:06Z</time>
      </trkpt>
      <trkpt lat="45.9095" lon="6.49448">
        <ele>1950.455</ele>
        <time>2019-02-24T10:00:06Z</time>
      </trkpt>
      <trkpt lat="45.90911" lon="6.49433">
        <ele>1959.323</ele>
        <time>2019-02-24T10:01:08Z</time>
      </trkpt>
      <trkpt lat="45.90897" lon="6.49413">
        <ele>1965.429</ele>
        <time>2019-02-24T10:02:02Z</time>
      </trkpt>
      <trkpt lat="45.90901" lon="6.49475">
        <ele>1975.5</ele>
        <time>2019-02-24T10:03:45Z</time>
      </trkpt>
      <trkpt lat="45.90922" lon="6.49506">
        <ele>1984.62</ele>
        <time>2019-02-24T10:04:58Z</time>
      </trkpt>
      <trkpt lat="45.90901" lon="6.49513">
        <ele>1989.008</ele>
        <time>2019-02-24T10:05:38Z</time>
      </trkpt>
      <trkpt lat="45.9088" lon="6.49501">
        <ele>1991.865</ele>
        <time>2019-02-24T10:12:05Z</time>
      </trkpt>
      <trkpt lat="45.90871" lon="6.49593">
        <ele>2009.415</ele>
        <time>2019-02-24T10:14:05Z</time>
      </trkpt>
      <trkpt lat="45.90819" lon="6.49582">
        <ele>2021.456</ele>
        <time>2019-02-24T10:15:53Z</time>
      </trkpt>
      <trkpt lat="45.90831" lon="6.49618">
        <ele>2030.639</ele>
        <time>2019-02-24T10:17:26Z</time>
      </trkpt>
      <trkpt lat="45.90785" lon="6.49599">
        <ele>2042.99</ele>
        <time>2019-02-24T10:18:46Z</time>
      </trkpt>
      <trkpt lat="45.90804" lon="6.49663">
        <ele>2056.346</ele>
        <time>2019-02-24T10:20:43Z</time>
      </trkpt>
      <trkpt lat="45.90716" lon="6.49656">
        <ele>2080.039</ele>
        <time>2019-02-24T10:23:34Z</time>
      </trkpt>
      <trkpt lat="45.9071" lon="6.49707">
        <ele>2090.347</ele>
        <time>2019-02-24T10:24:55Z</time>
      </trkpt>
      <trkpt lat="45.90674" lon="6.49756">
        <ele>2101.735</ele>
        <time>2019-02-24T10:27:12Z</time>
      </trkpt>
      <trkpt lat="45.90706" lon="6.4983">
        <ele>2118.086</ele>
        <time>2019-02-24T10:29:33Z</time>
      </trkpt>
      <trkpt lat="45.90685" lon="6.49814">
        <ele>2123.014</ele>
        <time>2019-02-24T10:30:12Z</time>
      </trkpt>
      <trkpt lat="45.90643" lon="6.49818">
        <ele>2133.008</ele>
        <time>2019-02-24T10:31:36Z</time>
      </trkpt>
      <trkpt lat="45.90645" lon="6.49831">
        <ele>2136.526</ele>
        <time>2019-02-24T10:32:06Z</time>
      </trkpt>
      <trkpt lat="45.90631" lon="6.49829">
        <ele>2140.916</ele>
        <time>2019-02-24T10:32:35Z</time>
      </trkpt>
      <trkpt lat="45.90554" lon="6.49912">
        <ele>2158.647</ele>
        <time>2019-02-24T10:35:03Z</time>
      </trkpt>
      <trkpt lat="45.90545" lon="6.50016">
        <ele>2169.54</ele>
        <time>2019-02-24T10:36:57Z</time>
      </trkpt>
      <trkpt lat="45.90523" lon="6.50074">
        <ele>2171.671</ele>
        <time>2019-02-24T10:37:47Z</time>
      </trkpt>
      <trkpt lat="45.90538" lon="6.50281">
        <ele>2198.277</ele>
        <time>2019-02-24T10:47:59Z</time>
      </trkpt>
      <trkpt lat="45.90561" lon="6.50288">
        <ele>2207.44</ele>
        <time>2019-02-24T10:49:06Z</time>
      </trkpt>
      <trkpt lat="45.90519" lon="6.50352">
        <ele>2219.968</ele>
        <time>2019-02-24T10:50:47Z</time>
      </trkpt>
      <trkpt lat="45.90637" lon="6.50396">
        <ele>2252.314</ele>
        <time>2019-02-24T10:54:37Z</time>
      </trkpt>
      <trkpt lat="45.90598" lon="6.5047">
        <ele>2269.554</ele>
        <time>2019-02-24T10:56:51Z</time>
      </trkpt>
      <trkpt lat="45.90678" lon="6.50477">
        <ele>2292.109</ele>
        <time>2019-02-24T10:59:48Z</time>
      </trkpt>
      <trkpt lat="45.90652" lon="6.50524">
        <ele>2300.408</ele>
        <time>2019-02-24T11:01:06Z</time>
      </trkpt>
      <trkpt lat="45.90707" lon="6.50546">
        <ele>2318.534</ele>
        <time>2019-02-24T11:03:31Z</time>
      </trkpt>
      <trkpt lat="45.90687" lon="6.50573">
        <ele>2326.374</ele>
        <time>2019-02-24T11:04:51Z</time>
      </trkpt>
      <trkpt lat="45.9073" lon="6.50599">
        <ele>2339.115</ele>
        <time>2019-02-24T11:06:38Z</time>
      </trkpt>
      <trkpt lat="45.90718" lon="6.50627">
        <ele>2346.778</ele>
        <time>2019-02-24T11:07:43Z</time>
      </trkpt>
      <trkpt lat="45.90762" lon="6.50642">
        <ele>2359.319</ele>
        <time>2019-02-24T11:09:11Z</time>
      </trkpt>
      <trkpt lat="45.90767" lon="6.50709">
        <ele>2377.865</ele>
        <time>2019-02-24T11:18:10Z</time>
      </trkpt>
      <trkpt lat="45.90814" lon="6.50874">
        <ele>2423.658</ele>
        <time>2019-02-24T11:23:53Z</time>
      </trkpt>
      <trkpt lat="45.90827" lon="6.50875">
        <ele>2427.196</ele>
        <time>2019-02-24T11:24:25Z</time>
      </trkpt>
      <trkpt lat="45.90842" lon="6.50841">
        <ele>2434.349</ele>
        <time>2019-02-24T11:25:38Z</time>
      </trkpt>
      <trkpt lat="45.90855" lon="6.50857">
        <ele>2441.802</ele>
        <time>2019-02-24T11:26:48Z</time>
      </trkpt>
      <trkpt lat="45.9087" lon="6.50795">
        <ele>2455.322</ele>
        <time>2019-02-24T11:28:31Z</time>
      </trkpt>
      <trkpt lat="45.90883" lon="6.50817">
        <ele>2462.108</ele>
        <time>2019-02-24T11:29:17Z</time>
      </trkpt>
      <trkpt lat="45.90897" lon="6.50796">
        <ele>2470.497</ele>
        <time>2019-02-24T11:30:33Z</time>
      </trkpt>
      <trkpt lat="45.90899" lon="6.50858">
        <ele>2480.517</ele>
        <time>2019-02-24T11:53:24Z</time>
      </trkpt>
      <trkpt lat="45.90909" lon="6.50832">
        <ele>2478.078</ele>
        <time>2019-02-24T12:28:08Z</time>
      </trkpt>
      <trkpt lat="45.90953" lon="6.50853">
        <ele>2451.671</ele>
        <time>2019-02-24T12:33:31Z</time>
      </trkpt>
      <trkpt lat="45.90972" lon="6.50823">
        <ele>2436.892</ele>
        <time>2019-02-24T12:33:35Z</time>
      </trkpt>
      <trkpt lat="45.90985" lon="6.50827">
        <ele>2430.168</ele>
        <time>2019-02-24T12:33:37Z</time>
      </trkpt>
      <trkpt lat="45.90994" lon="6.50763">
        <ele>2413.991</ele>
        <time>2019-02-24T12:33:42Z</time>
      </trkpt>
      <trkpt lat="45.90977" lon="6.50756">
        <ele>2410.269</ele>
        <time>2019-02-24T12:33:45Z</time>
      </trkpt>
      <trkpt lat="45.91019" lon="6.50802">
        <ele>2408.815</ele>
        <time>2019-02-24T12:40:32Z</time>
      </trkpt>
      <trkpt lat="45.91018" lon="6.50853">
        <ele>2407.565</ele>
        <time>2019-02-24T12:43:30Z</time>
      </trkpt>
      <trkpt lat="45.9107" lon="6.50921">
        <ele>2365.011</ele>
        <time>2019-02-24T12:44:33Z</time>
      </trkpt>
      <trkpt lat="45.9109" lon="6.50927">
        <ele>2355.008</ele>
        <time>2019-02-24T12:44:35Z</time>
      </trkpt>
      <trkpt lat="45.91092" lon="6.50878">
        <ele>2349.174</ele>
        <time>2019-02-24T12:44:38Z</time>
      </trkpt>
      <trkpt lat="45.91102" lon="6.50891">
        <ele>2337.714</ele>
        <time>2019-02-24T12:45:34Z</time>
      </trkpt>
      <trkpt lat="45.91117" lon="6.50876">
        <ele>2298.795</ele>
        <time>2019-02-24T12:45:42Z</time>
      </trkpt>
      <trkpt lat="45.91156" lon="6.50943">
        <ele>2294.078</ele>
        <time>2019-02-24T12:45:46Z</time>
      </trkpt>
      <trkpt lat="45.91226" lon="6.51012">
        <ele>2283.819</ele>
        <time>2019-02-24T12:49:25Z</time>
      </trkpt>
      <trkpt lat="45.91288" lon="6.50979">
        <ele>2253.655</ele>
        <time>2019-02-24T12:49:32Z</time>
      </trkpt>
      <trkpt lat="45.91339" lon="6.51048">
        <ele>2244.218</ele>
        <time>2019-02-24T12:49:37Z</time>
      </trkpt>
      <trkpt lat="45.91378" lon="6.51061">
        <ele>2244.836</ele>
        <time>2019-02-24T12:49:44Z</time>
      </trkpt>
      <trkpt lat="45.91369" lon="6.5107">
        <ele>2245.482</ele>
        <time>2019-02-24T12:54:54Z</time>
      </trkpt>
      <trkpt lat="45.91363" lon="6.51056">
        <ele>2248.643</ele>
        <time>2019-02-24T12:58:00Z</time>
      </trkpt>
      <trkpt lat="45.91391" lon="6.51053">
        <ele>2254.517</ele>
        <time>2019-02-24T12:58:33Z</time>
      </trkpt>
      <trkpt lat="45.91383" lon="6.51099">
        <ele>2259.608</ele>
        <time>2019-02-24T12:59:40Z</time>
      </trkpt>
      <trkpt lat="45.91356" lon="6.51138">
        <ele>2271.621</ele>
        <time>2019-02-24T13:00:59Z</time>
      </trkpt>
      <trkpt lat="45.91477" lon="6.51105">
        <ele>2297.151</ele>
        <time>2019-02-24T13:04:10Z</time>
      </trkpt>
      <trkpt lat="45.91461" lon="6.51143">
        <ele>2305.012</ele>
        <time>2019-02-24T13:05:13Z</time>
      </trkpt>
      <trkpt lat="45.91477" lon="6.51148">
        <ele>2313.415</ele>
        <time>2019-02-24T13:06:21Z</time>
      </trkpt>
      <trkpt lat="45.9146" lon="6.51168">
        <ele>2317.326</ele>
        <time>2019-02-24T13:07:58Z</time>
      </trkpt>
      <trkpt lat="45.91474" lon="6.51167">
        <ele>2321.252</ele>
        <time>2019-02-24T13:08:44Z</time>
      </trkpt>
      <trkpt lat="45.91468" lon="6.51186">
        <ele>2326.875</ele>
        <time>2019-02-24T13:09:30Z</time>
      </trkpt>
      <trkpt lat="45.91494" lon="6.51202">
        <ele>2341.673</ele>
        <time>2019-02-24T13:11:29Z</time>
      </trkpt>
      <trkpt lat="45.91487" lon="6.5122">
        <ele>2346.272</ele>
        <time>2019-02-24T13:12:04Z</time>
      </trkpt>
      <trkpt lat="45.9151" lon="6.51216">
        <ele>2351.913</ele>
        <time>2019-02-24T13:12:53Z</time>
      </trkpt>
      <trkpt lat="45.91502" lon="6.51238">
        <ele>2357.314</ele>
        <time>2019-02-24T13:13:40Z</time>
      </trkpt>
      <trkpt lat="45.91531" lon="6.51234">
        <ele>2371.408</ele>
        <time>2019-02-24T13:16:05Z</time>
      </trkpt>
      <trkpt lat="45.91498" lon="6.51289">
        <ele>2383.82</ele>
        <time>2019-02-24T13:17:39Z</time>
      </trkpt>
      <trkpt lat="45.91544" lon="6.51284">
        <ele>2401.83</ele>
        <time>2019-02-24T13:20:42Z</time>
      </trkpt>
      <trkpt lat="45.91556" lon="6.51262">
        <ele>2407.721</ele>
        <time>2019-02-24T13:21:13Z</time>
      </trkpt>
      <trkpt lat="45.91582" lon="6.51271">
        <ele>2422.524</ele>
        <time>2019-02-24T13:24:29Z</time>
      </trkpt>
      <trkpt lat="45.91575" lon="6.51259">
        <ele>2423.175</ele>
        <time>2019-02-24T13:31:22Z</time>
      </trkpt>
      <trkpt lat="45.91586" lon="6.51281">
        <ele>2423.541</ele>
        <time>2019-02-24T13:47:41Z</time>
      </trkpt>
      <trkpt lat="45.91582" lon="6.51255">
        <ele>2424.494</ele>
        <time>2019-02-24T13:59:35Z</time>
      </trkpt>
      <trkpt lat="45.91598" lon="6.51284">
        <ele>2411.362</ele>
        <time>2019-02-24T14:03:39Z</time>
      </trkpt>
      <trkpt lat="45.91633" lon="6.51222">
        <ele>2384.915</ele>
        <time>2019-02-24T14:06:11Z</time>
      </trkpt>
      <trkpt lat="45.91667" lon="6.51226">
        <ele>2373.665</ele>
        <time>2019-02-24T14:06:25Z</time>
      </trkpt>
      <trkpt lat="45.9163" lon="6.51318">
        <ele>2346.211</ele>
        <time>2019-02-24T14:08:02Z</time>
      </trkpt>
      <trkpt lat="45.91644" lon="6.51331">
        <ele>2324.208</ele>
        <time>2019-02-24T14:08:08Z</time>
      </trkpt>
      <trkpt lat="45.91664" lon="6.51427">
        <ele>2288.744</ele>
        <time>2019-02-24T14:08:17Z</time>
      </trkpt>
      <trkpt lat="45.91708" lon="6.51473">
        <ele>2272.454</ele>
        <time>2019-02-24T14:08:21Z</time>
      </trkpt>
      <trkpt lat="45.91778" lon="6.51404">
        <ele>2248.075</ele>
        <time>2019-02-24T14:14:28Z</time>
      </trkpt>
      <trkpt lat="45.91807" lon="6.51393">
        <ele>2237.468</ele>
        <time>2019-02-24T14:14:57Z</time>
      </trkpt>
      <trkpt lat="45.91814" lon="6.51414">
        <ele>2232.749</ele>
        <time>2019-02-24T14:15:21Z</time>
      </trkpt>
      <trkpt lat="45.9187" lon="6.51454">
        <ele>2215.175</ele>
        <time>2019-02-24T14:17:02Z</time>
      </trkpt>
      <trkpt lat="45.91866" lon="6.51423">
        <ele>2205.068</ele>
        <time>2019-02-24T14:17:30Z</time>
      </trkpt>
      <trkpt lat="45.91899" lon="6.51404">
        <ele>2179.266</ele>
        <time>2019-02-24T14:17:36Z</time>
      </trkpt>
      <trkpt lat="45.91914" lon="6.51357">
        <ele>2158.774</ele>
        <time>2019-02-24T14:17:39Z</time>
      </trkpt>
      <trkpt lat="45.9196" lon="6.51102">
        <ele>2138.856</ele>
        <time>2019-02-24T14:18:11Z</time>
      </trkpt>
      <trkpt lat="45.91997" lon="6.51089">
        <ele>2111.521</ele>
        <time>2019-02-24T14:21:09Z</time>
      </trkpt>
      <trkpt lat="45.92007" lon="6.51051">
        <ele>2097.008</ele>
        <time>2019-02-24T14:21:13Z</time>
      </trkpt>
      <trkpt lat="45.92046" lon="6.51072">
        <ele>2078.78</ele>
        <time>2019-02-24T14:21:18Z</time>
      </trkpt>
      <trkpt lat="45.92079" lon="6.50995">
        <ele>2069.43</ele>
        <time>2019-02-24T14:21:24Z</time>
      </trkpt>
      <trkpt lat="45.92069" lon="6.50928">
        <ele>2069.131</ele>
        <time>2019-02-24T14:22:39Z</time>
      </trkpt>
      <trkpt lat="45.921" lon="6.50898">
        <ele>2059.814</ele>
        <time>2019-02-24T14:22:45Z</time>
      </trkpt>
      <trkpt lat="45.92125" lon="6.50914">
        <ele>2043.785</ele>
        <time>2019-02-24T14:22:48Z</time>
      </trkpt>
      <trkpt lat="45.9217" lon="6.509">
        <ele>2020.071</ele>
        <time>2019-02-24T14:22:52Z</time>
      </trkpt>
      <trkpt lat="45.92195" lon="6.50947">
        <ele>2008.414</ele>
        <time>2019-02-24T14:22:56Z</time>
      </trkpt>
      <trkpt lat="45.92262" lon="6.50977">
        <ele>1985.482</ele>
        <time>2019-02-24T14:23:02Z</time>
      </trkpt>
      <trkpt lat="45.92235" lon="6.50975">
        <ele>1980.717</ele>
        <time>2019-02-24T14:24:06Z</time>
      </trkpt>
      <trkpt lat="45.9225" lon="6.50983">
        <ele>1980.687</ele>
        <time>2019-02-24T14:24:35Z</time>
      </trkpt>
      <trkpt lat="45.92366" lon="6.50992">
        <ele>1966.515</ele>
        <time>2019-02-24T14:25:05Z</time>
      </trkpt>
      <trkpt lat="45.92431" lon="6.50968">
        <ele>1960.708</ele>
        <time>2019-02-24T14:25:35Z</time>
      </trkpt>
      <trkpt lat="45.92445" lon="6.5094">
        <ele>1943.364</ele>
        <time>2019-02-24T14:26:08Z</time>
      </trkpt>
      <trkpt lat="45.92413" lon="6.50912">
        <ele>1932.994</ele>
        <time>2019-02-24T14:26:14Z</time>
      </trkpt>
      <trkpt lat="45.92395" lon="6.50868">
        <ele>1925.165</ele>
        <time>2019-02-24T14:26:26Z</time>
      </trkpt>
      <trkpt lat="45.92421" lon="6.5072">
        <ele>1868.768</ele>
        <time>2019-02-24T14:26:41Z</time>
      </trkpt>
      <trkpt lat="45.92446" lon="6.50664">
        <ele>1841.089</ele>
        <time>2019-02-24T14:26:46Z</time>
      </trkpt>
      <trkpt lat="45.9246" lon="6.50664">
        <ele>1834.135</ele>
        <time>2019-02-24T14:26:48Z</time>
      </trkpt>
      <trkpt lat="45.92471" lon="6.507">
        <ele>1832.018</ele>
        <time>2019-02-24T14:27:41Z</time>
      </trkpt>
      <trkpt lat="45.92524" lon="6.5062">
        <ele>1798.996</ele>
        <time>2019-02-24T14:27:51Z</time>
      </trkpt>
      <trkpt lat="45.92537" lon="6.50613">
        <ele>1798.357</ele>
        <time>2019-02-24T14:27:53Z</time>
      </trkpt>
      <trkpt lat="45.92537" lon="6.50623">
        <ele>1799.2</ele>
        <time>2019-02-24T14:29:45Z</time>
      </trkpt>
      <trkpt lat="45.92541" lon="6.50598">
        <ele>1793.62</ele>
        <time>2019-02-24T14:29:50Z</time>
      </trkpt>
      <trkpt lat="45.92514" lon="6.50543">
        <ele>1785.008</ele>
        <time>2019-02-24T14:30:29Z</time>
      </trkpt>
      <trkpt lat="45.92519" lon="6.50468">
        <ele>1762.318</ele>
        <time>2019-02-24T14:30:38Z</time>
      </trkpt>
      <trkpt lat="45.92641" lon="6.50318">
        <ele>1693.678</ele>
        <time>2019-02-24T14:30:53Z</time>
      </trkpt>
      <trkpt lat="45.92608" lon="6.50339">
        <ele>1694.199</ele>
        <time>2019-02-24T14:31:22Z</time>
      </trkpt>
      <trkpt lat="45.92584" lon="6.50335">
        <ele>1696.792</ele>
        <time>2019-02-24T14:32:58Z</time>
      </trkpt>
      <trkpt lat="45.92539" lon="6.5023">
        <ele>1687.673</ele>
        <time>2019-02-24T14:34:49Z</time>
      </trkpt>
      <trkpt lat="45.92505" lon="6.50206">
        <ele>1679.149</ele>
        <time>2019-02-24T14:35:06Z</time>
      </trkpt>
      <trkpt lat="45.92496" lon="6.50099">
        <ele>1669.012</ele>
        <time>2019-02-24T14:36:07Z</time>
      </trkpt>
      <trkpt lat="45.92515" lon="6.50072">
        <ele>1648.31</ele>
        <time>2019-02-24T14:36:12Z</time>
      </trkpt>
      <trkpt lat="45.92515" lon="6.50036">
        <ele>1635.743</ele>
        <time>2019-02-24T14:36:16Z</time>
      </trkpt>
      <trkpt lat="45.92541" lon="6.50028">
        <ele>1625.264</ele>
        <time>2019-02-24T14:36:19Z</time>
      </trkpt>
      <trkpt lat="45.92555" lon="6.49995">
        <ele>1614.81</ele>
        <time>2019-02-24T14:36:21Z</time>
      </trkpt>
      <trkpt lat="45.92552" lon="6.49956">
        <ele>1608.508</ele>
        <time>2019-02-24T14:36:24Z</time>
      </trkpt>
      <trkpt lat="45.92521" lon="6.49893">
        <ele>1602.917</ele>
        <time>2019-02-24T14:37:13Z</time>
      </trkpt>
      <trkpt lat="45.92529" lon="6.49827">
        <ele>1594.417</ele>
        <time>2019-02-24T14:37:27Z</time>
      </trkpt>
      <trkpt lat="45.92548" lon="6.49838">
        <ele>1586.148</ele>
        <time>2019-02-24T14:37:31Z</time>
      </trkpt>
      <trkpt lat="45.92578" lon="6.49828">
        <ele>1566.551</ele>
        <time>2019-02-24T14:37:38Z</time>
      </trkpt>
      <trkpt lat="45.92632" lon="6.4952">
        <ele>1498.132</ele>
        <time>2019-02-24T14:42:08Z</time>
      </trkpt>
      <trkpt lat="45.92699" lon="6.49445">
        <ele>1481.358</ele>
        <time>2019-02-24T14:42:17Z</time>
      </trkpt>
      <trkpt lat="45.92723" lon="6.49444">
        <ele>1482.981</ele>
        <time>2019-02-24T14:42:31Z</time>
      </trkpt>
      <trkpt lat="45.92727" lon="6.49458">
        <ele>1483.769</ele>
        <time>2019-02-24T14:45:55Z</time>
      </trkpt>
      <trkpt lat="45.92717" lon="6.49451">
        <ele>1484.887</ele>
        <time>2019-02-24T14:47:50Z</time>
      </trkpt>
      <trkpt lat="45.92706" lon="6.49318">
        <ele>1475.142</ele>
        <time>2019-02-24T14:55:29Z</time>
      </trkpt>
      <trkpt lat="45.92683" lon="6.49278">
        <ele>1472.226</ele>
        <time>2019-02-24T14:55:34Z</time>
      </trkpt>
      <trkpt lat="45.92622" lon="6.49235">
        <ele>1474.108</ele>
        <time>2019-02-24T14:56:04Z</time>
      </trkpt>
      <trkpt lat="45.92535" lon="6.49228">
        <ele>1480.341</ele>
        <time>2019-02-24T14:58:05Z</time>
      </trkpt>
      <trkpt lat="45.92491" lon="6.49205">
        <ele>1482.931</ele>
        <time>2019-02-24T14:59:12Z</time>
      </trkpt>
      <trkpt lat="45.92446" lon="6.49137">
        <ele>1483.862</ele>
        <time>2019-02-24T15:00:36Z</time>
      </trkpt>
      <trkpt lat="45.9236" lon="6.49108">
        <ele>1470.585</ele>
        <time>2019-02-24T15:00:52Z</time>
      </trkpt>
      <trkpt lat="45.92255" lon="6.49049">
        <ele>1456.746</ele>
        <time>2019-02-24T15:01:09Z</time>
      </trkpt>
      <trkpt lat="45.92181" lon="6.48956">
        <ele>1446.932</ele>
        <time>2019-02-24T15:01:27Z</time>
      </trkpt>
      <trkpt lat="45.92162" lon="6.48881">
        <ele>1440.465</ele>
        <time>2019-02-24T15:01:35Z</time>
      </trkpt>
      <trkpt lat="45.92181" lon="6.48799">
        <ele>1444.283</ele>
        <time>2019-02-24T15:02:54Z</time>
      </trkpt>
      <trkpt lat="45.92114" lon="6.48647">
        <ele>1452.858</ele>
        <time>2019-02-24T15:07:24Z</time>
      </trkpt>
      <trkpt lat="45.92147" lon="6.48505">
        <ele>1449.052</ele>
        <time>2019-02-24T15:11:46Z</time>
      </trkpt>
      <trkpt lat="45.92125" lon="6.48489">
        <ele>1449.217</ele>
        <time>2019-02-24T15:13:13Z</time>
      </trkpt>
      <trkpt lat="45.92143" lon="6.48482">
        <ele>1445.708</ele>
        <time>2019-02-24T15:13:20Z</time>
      </trkpt>
      <trkpt lat="45.92121" lon="6.48424">
        <ele>1438.138</ele>
        <time>2019-02-24T15:13:31Z</time>
      </trkpt>
      <trkpt lat="45.9213" lon="6.48368">
        <ele>1437.238</ele>
        <time>2019-02-24T15:14:05Z</time>
      </trkpt>
      <trkpt lat="45.92172" lon="6.48359">
        <ele>1431.529</ele>
        <time>2019-02-24T15:14:22Z</time>
      </trkpt>
      <trkpt lat="45.92174" lon="6.48315">
        <ele>1425.712</ele>
        <time>2019-02-24T15:14:29Z</time>
      </trkpt>
      <trkpt lat="45.92095" lon="6.48126">
        <ele>1411.823</ele>
        <time>2019-02-24T15:14:55Z</time>
      </trkpt>
      <trkpt lat="45.92098" lon="6.48085">
        <ele>1409.519</ele>
        <time>2019-02-24T15:32:58Z</time>
      </trkpt>
    </trkseg>
  </trk>
</gpx>